Terminal Aerodrome Forecast
Issued by NWS Twin Cities, MN

Home | Current Version | Previous Version | Text Only | Print | Product List | Glossary Off
Versions: 1 2 3 4 5 6 7 8 9 10 11 12 13 14 15 16 17 18 19 20 21 22 23

241
FTUS43 KMPX 161527 AAA
TAFSTC
TAF AMD
KSTC 161527Z 1615/1712 13008KT P6SM OVC006
     FM170000 09007KT 3SM -TSRA BR SCT010 OVC020CB
      TEMPO 1700/1703 1/2SM TSRA OVC010CB
     FM170500 07006KT 4SM -SHRA BR VCTS OVC015CB
     FM170900 01005KT 3SM BR VCSH OVC007
     FM171100 32013G20KT 3SM -SHRA BR OVC005=

USA.gov is the U.S. government's official web portal to all federal, state and local government web resources and services.